createdAt,value
2019-01-17T00:00:22.489Z,98693.75
2019-01-17T00:05:51.370Z,98689.26
2019-01-17T00:11:12.106Z,98698.41
2019-01-17T00:16:29.339Z,98693.15
2019-01-17T00:21:56.018Z,98696.33
2019-01-17T00:27:34.188Z,98672.11
2019-01-17T00:33:16.331Z,98681.31
2019-01-17T00:38:44.021Z,98669.02
2019-01-17T00:44:07.007Z,98657.95
2019-01-17T00:49:44.130Z,98653.30
2019-01-17T00:55:14.075Z,98658.84
2019-01-17T01:00:38.126Z,98659.91
2019-01-17T01:06:08.303Z,98653.81
2019-01-17T01:11:37.198Z,98653.75
2019-01-17T01:17:19.580Z,98663.98
2019-01-17T01:22:47.627Z,98666.65
2019-01-17T01:28:20.801Z,98675.56
2019-01-17T01:33:43.366Z,98674.16
2019-01-17T01:39:17.638Z,98679.23
2019-01-17T01:44:56.670Z,98691.63
2019-01-17T01:50:23.634Z,98686.52
2019-01-17T01:55:29.024Z,98681.00
2019-01-17T02:00:34.194Z,98686.55
2019-01-17T02:05:39.350Z,98685.20
2019-01-17T02:10:44.355Z,98669.19
2019-01-17T02:15:49.428Z,98686.55
2019-01-17T02:20:54.444Z,98700.88
2019-01-17T02:25:59.828Z,98707.88
2019-01-17T02:31:05.206Z,98712.34
2019-01-17T02:36:10.231Z,98706.79
2019-01-17T02:41:15.314Z,98716.02
2019-01-17T02:46:21.573Z,98713.91
2019-01-17T02:51:27.142Z,98702.81
2019-01-17T02:56:32.090Z,98691.46
2019-01-17T03:01:37.167Z,98678.38
2019-01-17T03:06:42.324Z,98665.47
2019-01-17T03:11:47.342Z,98670.45
2019-01-17T03:16:52.748Z,98666.21
2019-01-17T03:21:57.987Z,98670.48
2019-01-17T03:27:03.010Z,98658.41
2019-01-17T03:32:08.607Z,98652.28
2019-01-17T03:37:13.624Z,98657.03
2019-01-17T03:42:18.954Z,98660.14
2019-01-17T03:47:23.931Z,98658.44
2019-01-17T03:52:29.012Z,98655.08
2019-01-17T03:57:34.771Z,98648.72
2019-01-17T04:02:40.228Z,98643.09
2019-01-17T04:07:45.315Z,98639.94
2019-01-17T04:12:50.461Z,98639.09
2019-01-17T04:17:55.538Z,98644.06
2019-01-17T04:23:00.596Z,98648.09
2019-01-17T04:28:05.640Z,98639.70
2019-01-17T04:33:10.700Z,98641.97
2019-01-17T04:38:15.751Z,98638.05
2019-01-17T04:43:20.915Z,98638.87
2019-01-17T04:48:25.906Z,98641.50
2019-01-17T04:53:31.065Z,98640.73
2019-01-17T04:58:37.571Z,98664.06
2019-01-17T05:03:46.251Z,98659.05
2019-01-17T05:08:56.349Z,98658.64
2019-01-17T05:14:01.381Z,98663.55
2019-01-17T05:19:06.628Z,98670.91
2019-01-17T05:24:11.636Z,98682.65
2019-01-17T05:29:16.626Z,98678.91
2019-01-17T05:34:22.186Z,98685.20
2019-01-17T05:39:27.243Z,98689.41
2019-01-17T05:44:32.744Z,98686.31
2019-01-17T05:49:38.969Z,98682.02
2019-01-17T05:54:44.125Z,98699.11
2019-01-17T05:59:49.618Z,98705.10
2019-01-17T06:04:54.994Z,98703.02
2019-01-17T06:10:00.263Z,98708.77
2019-01-17T06:15:06.337Z,98702.87
2019-01-17T06:20:12.892Z,98700.23
2019-01-17T06:25:18.182Z,98679.23
2019-01-17T06:30:28.306Z,98669.28
2019-01-17T06:35:33.438Z,98679.66
2019-01-17T06:40:38.635Z,98670.13
2019-01-17T06:45:43.997Z,98686.58
2019-01-17T06:50:50.007Z,98682.33
2019-01-17T06:55:55.117Z,98687.05
2019-01-17T07:01:01.142Z,98703.38
2019-01-17T07:06:06.235Z,98695.05
2019-01-17T07:11:11.295Z,98699.59
2019-01-17T07:16:16.416Z,98700.91
2019-01-17T07:21:21.661Z,98700.48
2019-01-17T07:26:26.731Z,98712.13
2019-01-17T07:31:32.121Z,98721.82
2019-01-17T07:36:37.159Z,98735.18
2019-01-17T07:41:42.699Z,98734.38
2019-01-17T07:46:47.779Z,98745.47
2019-01-17T07:51:52.890Z,98738.63
2019-01-17T07:56:58.298Z,98738.55
2019-01-17T08:02:03.485Z,98743.05
2019-01-17T08:07:08.825Z,98730.22
2019-01-17T08:12:14.500Z,98743.03
2019-01-17T08:17:19.700Z,98731.38
2019-01-17T08:22:25.769Z,98726.31
2019-01-17T08:27:31.293Z,98745.58
2019-01-17T08:32:36.704Z,98746.13
2019-01-17T08:37:41.823Z,98746.94
2019-01-17T08:42:47.268Z,98744.77
2019-01-17T08:47:54.261Z,98744.86
2019-01-17T08:52:59.383Z,98748.81
2019-01-17T08:58:04.473Z,98747.37
2019-01-17T09:03:12.604Z,98751.84
2019-01-17T09:08:17.841Z,98764.51
2019-01-17T09:13:23.179Z,98767.54
2019-01-17T09:18:28.686Z,98770.77
2019-01-17T09:23:34.019Z,98776.05
2019-01-17T09:28:39.209Z,98780.25
2019-01-17T09:33:44.406Z,98788.97
2019-01-17T09:38:49.491Z,98782.37
2019-01-17T09:43:54.679Z,98775.27
2019-01-17T09:48:59.789Z,98782.52
2019-01-17T09:54:04.929Z,98780.73
2019-01-17T09:59:11.393Z,98775.63
2019-01-17T10:04:17.102Z,98757.66
2019-01-17T10:09:22.676Z,98758.39
2019-01-17T10:14:30.815Z,98749.45
2019-01-17T10:20:08.697Z,98766.81
2019-01-17T10:26:06.740Z,98770.52
2019-01-17T10:31:51.008Z,98765.63
2019-01-17T10:37:43.389Z,98734.81
2019-01-17T10:43:07.811Z,98743.36
2019-01-17T10:48:49.098Z,98739.17
2019-01-17T10:54:37.034Z,98741.05
2019-01-17T10:59:50.192Z,98718.63
2019-01-17T11:05:38.627Z,98719.19
2019-01-17T11:11:23.020Z,98706.09
2019-01-17T11:17:04.886Z,98696.09
2019-01-17T11:22:34.971Z,98694.94
2019-01-17T11:28:17.791Z,98694.64
2019-01-17T11:33:58.003Z,98691.43
2019-01-17T11:39:45.646Z,98697.63
2019-01-17T11:45:15.162Z,98689.00
2019-01-17T11:51:16.699Z,98675.88
2019-01-17T11:57:06.458Z,98675.36
2019-01-17T12:02:54.016Z,98674.37
2019-01-17T12:07:59.197Z,98668.83
2019-01-17T12:13:04.605Z,98666.95
2019-01-17T12:18:09.719Z,98657.97
2019-01-17T12:23:15.189Z,98656.05
2019-01-17T12:28:20.353Z,98655.11
2019-01-17T12:33:25.462Z,98654.14
2019-01-17T12:38:30.538Z,98649.63
2019-01-17T12:43:35.599Z,98642.23
2019-01-17T12:48:40.849Z,98635.78
2019-01-17T12:53:46.348Z,98633.81
2019-01-17T12:58:51.495Z,98628.27
2019-01-17T13:03:57.885Z,98612.91
2019-01-17T13:09:04.783Z,98606.98
2019-01-17T13:14:11.301Z,98611.97
2019-01-17T13:19:16.762Z,98620.46
2019-01-17T13:24:22.026Z,98608.48
2019-01-17T13:29:27.069Z,98597.09
2019-01-17T13:34:32.163Z,98600.90
2019-01-17T13:39:37.354Z,98583.20
2019-01-17T13:44:42.333Z,98584.66
2019-01-17T13:49:47.443Z,98580.95
2019-01-17T13:54:52.557Z,98575.82
2019-01-17T13:59:57.763Z,98569.40
2019-01-17T14:05:03.867Z,98571.80
2019-01-17T14:10:09.580Z,98566.45
2019-01-17T14:15:33.057Z,98565.62
2019-01-17T14:20:47.405Z,98560.70
2019-01-17T14:25:52.614Z,98553.97
2019-01-17T14:30:58.123Z,98550.84
2019-01-17T14:36:03.192Z,98549.24
2019-01-17T14:41:08.457Z,98554.16
2019-01-17T14:46:13.565Z,98550.19
2019-01-17T14:51:18.883Z,98547.91
2019-01-17T14:56:24.863Z,98531.81
2019-01-17T15:01:30.067Z,98544.38
2019-01-17T15:06:35.258Z,98527.33
2019-01-17T15:11:46.081Z,98523.73
2019-01-17T15:16:52.468Z,98524.50
2019-01-17T15:22:05.453Z,98516.33
2019-01-17T15:27:10.499Z,98507.67
2019-01-17T15:32:15.766Z,98517.58
2019-01-17T15:37:20.903Z,98513.67
2019-01-17T15:42:26.272Z,98518.77
2019-01-17T15:47:31.828Z,98505.88
2019-01-17T15:52:37.347Z,98506.42
2019-01-17T15:57:42.460Z,98505.68
2019-01-17T16:02:47.559Z,98513.23
2019-01-17T16:07:52.630Z,98502.38
2019-01-17T16:12:57.705Z,98505.73
2019-01-17T16:18:04.394Z,98508.54
2019-01-17T16:23:10.571Z,98506.86
2019-01-17T16:28:16.333Z,98502.49
2019-01-17T16:33:21.837Z,98504.23
2019-01-17T16:38:28.545Z,98509.61
2019-01-17T16:43:34.894Z,98514.59
2019-01-17T16:48:40.890Z,98511.95
2019-01-17T16:53:47.171Z,98514.84
2019-01-17T16:58:52.356Z,98521.79
2019-01-17T17:03:57.418Z,98515.86
2019-01-17T17:09:09.798Z,98520.89
2019-01-17T17:14:14.925Z,98548.58
2019-01-17T17:19:20.335Z,98575.01
2019-01-17T17:24:25.724Z,98582.56
2019-01-17T17:29:30.773Z,98614.26
2019-01-17T17:34:39.036Z,98619.83
2019-01-17T17:39:44.453Z,98620.95
2019-01-17T17:44:49.581Z,98618.62
2019-01-17T17:49:59.401Z,98631.77
2019-01-17T17:55:04.956Z,98654.41
2019-01-17T18:00:27.329Z,98676.61
2019-01-17T18:05:32.558Z,98697.70
2019-01-17T18:10:37.679Z,98712.98
2019-01-17T18:15:42.797Z,98722.70
2019-01-17T18:20:47.948Z,98733.09
2019-01-17T18:25:53.005Z,98735.95
2019-01-17T18:30:58.190Z,98741.11
2019-01-17T18:36:03.681Z,98757.44
2019-01-17T18:41:11.447Z,98773.37
2019-01-17T18:46:16.892Z,98804.08
2019-01-17T18:51:22.826Z,98820.48
2019-01-17T18:56:28.762Z,98821.38
2019-01-17T19:01:33.859Z,98831.95
2019-01-17T19:06:39.140Z,98827.22
2019-01-17T19:11:45.150Z,98839.66
2019-01-17T19:16:50.728Z,98855.39
2019-01-17T19:21:56.040Z,98871.47
2019-01-17T19:27:01.177Z,98876.42
2019-01-17T19:32:06.623Z,98889.56
2019-01-17T19:37:11.777Z,98894.81
2019-01-17T19:42:17.020Z,98905.03
2019-01-17T19:47:22.100Z,98931.32
2019-01-17T19:52:27.310Z,98927.14
2019-01-17T19:57:32.327Z,98929.27
2019-01-17T20:02:37.554Z,98936.39
2019-01-17T20:07:42.731Z,98941.59
2019-01-17T20:12:48.446Z,98943.17
2019-01-17T20:17:53.960Z,98953.69
2019-01-17T20:22:59.162Z,98958.19
2019-01-17T20:28:04.473Z,98952.98
2019-01-17T20:33:09.998Z,98957.73
2019-01-17T20:38:15.306Z,98987.16
2019-01-17T20:43:20.472Z,98989.53
2019-01-17T20:48:25.883Z,98995.30
2019-01-17T20:53:31.218Z,99000.34
2019-01-17T20:58:42.255Z,99009.00
2019-01-17T21:03:44.548Z,99015.86
2019-01-17T21:08:49.721Z,99035.29
2019-01-17T21:13:54.768Z,99050.55
2019-01-17T21:18:59.958Z,99074.19
2019-01-17T21:24:05.178Z,99076.28
2019-01-17T21:29:19.755Z,99093.36
2019-01-17T21:34:25.883Z,99103.09
2019-01-17T21:39:31.441Z,99114.09
2019-01-17T21:44:36.634Z,99118.30
2019-01-17T21:49:42.184Z,99118.83
2019-01-17T21:54:47.210Z,99122.23
2019-01-17T21:59:54.895Z,99131.14
2019-01-17T22:05:00.800Z,99137.19
2019-01-17T22:10:11.708Z,99142.17
2019-01-17T22:15:19.114Z,99149.50
2019-01-17T22:20:24.430Z,99156.60
2019-01-17T22:25:34.468Z,99157.12
2019-01-17T22:30:40.905Z,99161.58
2019-01-17T22:35:46.034Z,99172.05
2019-01-17T22:40:54.578Z,99174.40
2019-01-17T22:45:59.699Z,99183.07
2019-01-17T22:51:14.916Z,99180.95
2019-01-17T22:56:20.474Z,99193.02
2019-01-17T23:01:30.256Z,99187.00
2019-01-17T23:06:35.291Z,99195.64
2019-01-17T23:11:41.071Z,99194.34
2019-01-17T23:16:46.352Z,99200.37
2019-01-17T23:21:51.571Z,99202.45
2019-01-17T23:26:56.728Z,99209.30
2019-01-17T23:32:05.126Z,99220.08
2019-01-17T23:37:10.624Z,99215.60
2019-01-17T23:42:18.440Z,99221.11
2019-01-17T23:47:23.664Z,99233.19
2019-01-17T23:52:29.732Z,99238.45
2019-01-17T23:57:36.873Z,99245.02
